カンゲルルススアーク の空港の天気 - METARとTAF

カンゲルルススアーク空港 ( BGSF / SFJ ) - グリーンランド カンゲルルススアーク
飛行場実況気象(Metar)
観測時間04/21 12:50 WGST (04/21 14:50 UTC)
風向・風速西南西 3m/s
視程-
天気現象
全天の8割程度の雲 雲底高度 2130m
全天の8割程度の雲 雲底高度 2740m
気温4℃
湿度52%
気圧1008hPa
METARBGSF 211450Z AUTO 25006KT 220V280 9999NDV BKN070/// BKN090/// 04/M05 Q1008
過去の天気等 Google飛行場航空写真 Wunderground天気予報

過去48時間のMETAR

飛行場予報(TAF)
発表時間: 4/21 11:25 WGST (4/21 13:25 UTC)
予報対象時間: 21日11時 WGST ~ 21日21時 WGST
風向・風速西南西 5m/s
視程10km以上
全天の4割程度の雲 雲底高度 1520m
21日11時 WGST ~ 21日21時 WGST に一時的に
全天の8割程度の雲 雲底高度 910m
TAF AMD BGSF 211325Z 2113/2123 24010KT 9999 SCT050
TEMPO 2113/2123 BKN030